createdAt,value
2022-09-17T00:00:34.070Z,11.65
2022-09-17T00:01:34.149Z,11.60
2022-09-17T00:02:34.188Z,11.60
2022-09-17T00:03:34.020Z,11.57
2022-09-17T00:04:34.141Z,11.57
2022-09-17T00:05:33.977Z,11.65
2022-09-17T00:06:33.979Z,11.52
2022-09-17T00:07:33.991Z,11.60
2022-09-17T00:08:33.998Z,11.62
2022-09-17T00:09:33.960Z,11.65
2022-09-17T00:10:33.980Z,11.69
2022-09-17T00:11:33.943Z,11.70
2022-09-17T00:12:34.003Z,11.70
2022-09-17T00:13:33.930Z,11.70
2022-09-17T00:14:33.962Z,11.73
2022-09-17T00:15:33.901Z,11.80
2022-09-17T00:16:33.973Z,11.78
2022-09-17T00:17:33.888Z,11.83
2022-09-17T00:18:33.879Z,11.78
2022-09-17T00:19:33.884Z,11.80
2022-09-17T00:20:34.177Z,11.78
2022-09-17T00:21:34.105Z,11.84
2022-09-17T00:22:34.558Z,11.78
2022-09-17T00:23:33.845Z,11.80
2022-09-17T00:24:33.831Z,11.90
2022-09-17T00:25:33.811Z,11.88
2022-09-17T00:26:33.830Z,11.94
2022-09-17T00:27:33.872Z,11.91
2022-09-17T00:28:34.063Z,11.90
2022-09-17T00:29:33.872Z,11.91
2022-09-17T00:30:34.142Z,12.10
2022-09-17T00:31:33.830Z,12.06
2022-09-17T00:32:33.774Z,11.99
2022-09-17T00:33:33.767Z,12.02
2022-09-17T00:34:33.747Z,11.91
2022-09-17T00:35:33.737Z,12.00
2022-09-17T00:36:33.843Z,11.95
2022-09-17T00:37:33.783Z,11.91
2022-09-17T00:38:33.712Z,11.90
2022-09-17T00:39:33.759Z,11.87
2022-09-17T00:40:33.793Z,11.90
2022-09-17T00:41:33.682Z,11.88
2022-09-17T00:42:33.645Z,11.88
2022-09-17T00:43:33.669Z,11.86
2022-09-17T00:44:33.638Z,11.94
2022-09-17T00:45:33.682Z,11.95
2022-09-17T00:46:33.697Z,11.91
2022-09-17T00:47:33.639Z,11.94
2022-09-17T00:48:33.612Z,11.91
2022-09-17T00:49:33.599Z,11.88
2022-09-17T00:50:33.595Z,11.84
2022-09-17T00:51:33.589Z,11.90
2022-09-17T00:52:33.771Z,11.83
2022-09-17T00:53:33.585Z,11.91
2022-09-17T00:54:33.549Z,11.84
2022-09-17T00:55:33.551Z,11.77
2022-09-17T00:56:33.528Z,11.68
2022-09-17T00:57:33.524Z,11.63
2022-09-17T00:58:35.842Z,11.69
2022-09-17T00:59:33.531Z,11.69
2022-09-17T01:00:33.590Z,11.63
2022-09-17T01:01:33.493Z,11.69
2022-09-17T01:02:33.509Z,11.62
2022-09-17T01:03:33.471Z,11.54
2022-09-17T01:04:33.477Z,11.55
2022-09-17T01:05:33.468Z,11.55
2022-09-17T01:06:33.475Z,11.54
2022-09-17T01:07:33.442Z,11.59
2022-09-17T01:08:33.547Z,11.55
2022-09-17T01:09:33.413Z,11.54
2022-09-17T01:10:33.417Z,11.47
2022-09-17T01:11:33.441Z,11.48
2022-09-17T01:12:33.385Z,11.48
2022-09-17T01:13:33.518Z,11.52
2022-09-17T01:14:33.361Z,11.57
2022-09-17T01:15:33.408Z,11.52
2022-09-17T01:16:33.428Z,11.57
2022-09-17T01:17:33.371Z,11.50
2022-09-17T01:18:33.482Z,11.50
2022-09-17T01:19:33.360Z,11.52
2022-09-17T01:20:33.323Z,11.50
2022-09-17T01:21:33.303Z,11.45
2022-09-17T01:22:33.316Z,11.52
2022-09-17T01:23:33.333Z,11.50
2022-09-17T01:24:33.399Z,11.51
2022-09-17T01:25:33.301Z,11.48
2022-09-17T01:26:33.279Z,11.47
2022-09-17T01:27:33.258Z,11.47
2022-09-17T01:28:33.251Z,11.50
2022-09-17T01:29:33.252Z,11.47
2022-09-17T01:30:33.395Z,11.62
2022-09-17T01:31:33.324Z,11.60
2022-09-17T01:32:33.214Z,11.59
2022-09-17T01:33:33.209Z,11.59
2022-09-17T01:34:33.194Z,11.65
2022-09-17T01:35:33.199Z,11.60
2022-09-17T01:36:33.189Z,11.62
2022-09-17T01:37:33.160Z,11.55
2022-09-17T01:38:33.180Z,11.57
2022-09-17T01:39:33.146Z,11.55
2022-09-17T01:40:33.440Z,11.51
2022-09-17T01:41:33.132Z,11.54
2022-09-17T01:42:33.137Z,11.47
2022-09-17T01:43:33.122Z,11.45
2022-09-17T01:44:33.137Z,11.44
2022-09-17T01:45:33.117Z,11.45
2022-09-17T01:46:33.162Z,11.36
2022-09-17T01:47:33.091Z,11.40
2022-09-17T01:48:33.151Z,11.36
2022-09-17T01:49:33.069Z,11.40
2022-09-17T01:50:33.229Z,11.43
2022-09-17T01:51:33.271Z,11.33
2022-09-17T01:52:33.371Z,11.41
2022-09-17T01:53:33.254Z,11.40
2022-09-17T01:54:33.365Z,11.48
2022-09-17T01:55:33.104Z,11.40
2022-09-17T01:56:33.376Z,11.47
2022-09-17T01:57:33.290Z,11.43
2022-09-17T01:58:33.230Z,11.51
2022-09-17T01:59:33.254Z,11.41
2022-09-17T02:00:33.233Z,11.48
2022-09-17T02:01:33.349Z,11.51
2022-09-17T02:02:32.939Z,11.48
2022-09-17T02:03:33.432Z,11.50
2022-09-17T02:04:33.187Z,11.50
2022-09-17T02:05:32.962Z,11.50
2022-09-17T02:06:33.154Z,11.51
2022-09-17T02:07:33.319Z,11.52
2022-09-17T02:08:33.335Z,11.48
2022-09-17T02:09:33.363Z,11.47
2022-09-17T02:10:33.456Z,11.47
2022-09-17T02:11:33.292Z,11.47
2022-09-17T02:12:33.174Z,11.50
2022-09-17T02:13:33.087Z,11.50
2022-09-17T02:14:33.279Z,11.47
2022-09-17T02:15:33.132Z,11.48
2022-09-17T02:16:32.944Z,11.47
2022-09-17T02:17:33.293Z,11.50
2022-09-17T02:18:33.106Z,11.50
2022-09-17T02:19:33.356Z,11.50
2022-09-17T02:20:32.815Z,11.43
2022-09-17T02:21:32.771Z,11.47
2022-09-17T02:22:32.983Z,11.45
2022-09-17T02:23:32.970Z,11.48
2022-09-17T02:24:33.228Z,11.40
2022-09-17T02:25:33.098Z,11.48
2022-09-17T02:26:33.050Z,11.51
2022-09-17T02:27:32.825Z,11.50
2022-09-17T02:28:33.115Z,11.47
2022-09-17T02:29:32.930Z,11.50
2022-09-17T02:30:33.018Z,11.48
2022-09-17T02:31:33.045Z,11.48
2022-09-17T02:32:32.876Z,11.57
2022-09-17T02:33:32.963Z,11.40
2022-09-17T02:34:32.730Z,11.50
2022-09-17T02:35:33.058Z,11.48
2022-09-17T02:36:32.974Z,11.44
2022-09-17T02:37:32.616Z,11.48
2022-09-17T02:38:32.631Z,11.43
2022-09-17T02:39:32.817Z,11.45
2022-09-17T02:40:32.862Z,11.40
2022-09-17T02:41:32.878Z,11.41
2022-09-17T02:42:32.792Z,11.36
2022-09-17T02:43:32.875Z,11.48
2022-09-17T02:44:32.746Z,11.33
2022-09-17T02:45:32.874Z,11.43
2022-09-17T02:46:32.980Z,11.37
2022-09-17T02:47:32.861Z,11.33
2022-09-17T02:48:32.881Z,11.41
2022-09-17T02:49:32.869Z,11.43
2022-09-17T02:50:32.905Z,11.43
2022-09-17T02:51:33.221Z,11.35
2022-09-17T02:52:32.739Z,11.36
2022-09-17T02:53:32.773Z,11.35
2022-09-17T02:54:32.574Z,11.35
2022-09-17T02:55:32.899Z,11.26
2022-09-17T02:56:32.452Z,11.27
2022-09-17T02:57:32.575Z,11.35
2022-09-17T02:58:32.822Z,11.29
2022-09-17T02:59:32.689Z,11.37
2022-09-17T03:00:32.939Z,11.30
2022-09-17T03:01:32.696Z,11.32
2022-09-17T03:02:32.624Z,11.29
2022-09-17T03:03:32.648Z,11.40
2022-09-17T03:04:32.475Z,11.41
2022-09-17T03:05:32.744Z,11.33
2022-09-17T03:06:32.591Z,11.29
2022-09-17T03:07:32.559Z,11.27
2022-09-17T03:08:32.700Z,11.37
2022-09-17T03:09:32.623Z,11.37
2022-09-17T03:10:32.773Z,11.26
2022-09-17T03:11:32.592Z,11.27
2022-09-17T03:12:32.590Z,11.27
2022-09-17T03:13:32.642Z,11.19
2022-09-17T03:14:32.297Z,11.14
2022-09-17T03:15:32.308Z,11.17
2022-09-17T03:16:32.626Z,11.17
2022-09-17T03:17:32.448Z,11.18
2022-09-17T03:18:32.624Z,11.17
2022-09-17T03:19:32.682Z,11.17
2022-09-17T03:20:32.446Z,11.25
2022-09-17T03:21:32.559Z,11.17
2022-09-17T03:22:32.596Z,11.15
2022-09-17T03:23:32.613Z,11.19
2022-09-17T03:24:32.537Z,11.15
2022-09-17T03:25:32.519Z,11.04
2022-09-17T03:26:32.385Z,11.11
2022-09-17T03:27:32.504Z,11.05
2022-09-17T03:28:32.262Z,10.94
2022-09-17T03:29:32.815Z,11.02
2022-09-17T03:30:32.564Z,11.00
2022-09-17T03:31:32.464Z,11.04
2022-09-17T03:32:32.615Z,11.04
2022-09-17T03:33:32.456Z,10.94
2022-09-17T03:34:32.570Z,11.05
2022-09-17T03:35:32.303Z,11.07
2022-09-17T03:36:32.080Z,11.02
2022-09-17T03:37:33.251Z,10.96
2022-09-17T03:38:32.225Z,11.05
2022-09-17T03:39:32.347Z,10.97
2022-09-17T03:40:32.344Z,10.93
2022-09-17T03:41:32.490Z,10.94
2022-09-17T03:42:32.407Z,10.97
2022-09-17T03:43:32.449Z,10.97
2022-09-17T03:44:32.345Z,10.86
2022-09-17T03:45:32.107Z,10.94
2022-09-17T03:46:32.052Z,10.90
2022-09-17T03:47:32.530Z,10.93
2022-09-17T03:48:32.242Z,10.86
2022-09-17T03:49:32.465Z,10.86
2022-09-17T03:50:32.157Z,10.87
2022-09-17T03:51:32.140Z,10.86
2022-09-17T03:52:32.298Z,10.89
2022-09-17T03:53:32.155Z,10.81
2022-09-17T03:54:32.288Z,10.74
2022-09-17T03:55:32.171Z,10.79
2022-09-17T03:56:32.340Z,10.79
2022-09-17T03:57:31.883Z,10.76
2022-09-17T03:58:32.188Z,10.82
2022-09-17T03:59:32.172Z,10.78
2022-09-17T04:00:32.176Z,10.78
2022-09-17T04:01:32.202Z,10.74
2022-09-17T04:02:32.570Z,10.75
2022-09-17T04:03:32.153Z,10.75
2022-09-17T04:04:32.210Z,10.71
2022-09-17T04:05:32.103Z,10.64
2022-09-17T04:06:32.231Z,10.76
2022-09-17T04:07:31.788Z,10.75
2022-09-17T04:08:32.055Z,10.71
2022-09-17T04:09:33.434Z,10.63
2022-09-17T04:10:32.084Z,10.60
2022-09-17T04:11:32.181Z,10.69
2022-09-17T04:12:32.143Z,10.68
2022-09-17T04:13:32.029Z,10.64
2022-09-17T04:14:31.822Z,10.68
2022-09-17T04:15:32.066Z,10.60
2022-09-17T04:16:32.203Z,10.69
2022-09-17T04:17:32.101Z,10.59
2022-09-17T04:18:32.046Z,10.64
2022-09-17T04:19:32.069Z,10.64
2022-09-17T04:20:32.026Z,10.59
2022-09-17T04:21:31.749Z,10.68
2022-09-17T04:22:31.842Z,10.60
2022-09-17T04:23:32.245Z,10.67
2022-09-17T04:24:31.879Z,10.63
2022-09-17T04:25:31.852Z,10.61
2022-09-17T04:26:32.027Z,10.60
2022-09-17T04:27:32.007Z,10.71
2022-09-17T04:28:31.592Z,10.67
2022-09-17T04:29:31.835Z,10.67
2022-09-17T04:30:31.929Z,10.64
2022-09-17T04:31:32.353Z,10.69
2022-09-17T04:32:31.747Z,10.67
2022-09-17T04:33:31.939Z,10.69
2022-09-17T04:34:32.006Z,10.68
2022-09-17T04:35:31.779Z,10.68
2022-09-17T04:36:31.941Z,10.71
2022-09-17T04:37:31.834Z,10.69
2022-09-17T04:38:32.025Z,10.67
2022-09-17T04:39:31.860Z,10.63
2022-09-17T04:40:31.867Z,10.61
2022-09-17T04:41:31.853Z,10.71
2022-09-17T04:42:31.640Z,10.63
2022-09-17T04:43:31.664Z,10.61
2022-09-17T04:44:31.660Z,10.74
2022-09-17T04:45:31.743Z,10.61
2022-09-17T04:46:31.580Z,10.68
2022-09-17T04:47:32.016Z,10.68
2022-09-17T04:48:31.578Z,10.64
2022-09-17T04:49:31.555Z,10.64
2022-09-17T04:50:31.612Z,10.61
2022-09-17T04:51:31.672Z,10.68
2022-09-17T04:52:31.657Z,10.72
2022-09-17T04:53:31.793Z,10.67
2022-09-17T04:54:31.645Z,10.68
2022-09-17T04:55:31.707Z,10.74
2022-09-17T04:56:31.529Z,10.69
2022-09-17T04:57:31.729Z,10.72
2022-09-17T04:58:31.537Z,10.69
2022-09-17T04:59:31.826Z,10.75
2022-09-17T05:00:31.371Z,10.78
2022-09-17T05:01:31.497Z,10.82
2022-09-17T05:02:31.713Z,10.76
2022-09-17T05:03:31.818Z,10.81
2022-09-17T05:04:31.473Z,10.71
2022-09-17T05:05:31.471Z,10.81
2022-09-17T05:06:31.422Z,10.76
2022-09-17T05:07:31.329Z,10.81
2022-09-17T05:08:31.811Z,10.82
2022-09-17T05:09:31.200Z,10.87
2022-09-17T05:10:31.335Z,10.81
2022-09-17T05:11:31.241Z,10.93
2022-09-17T05:12:34.345Z,10.94
2022-09-17T05:13:31.163Z,10.93
2022-09-17T05:14:31.208Z,10.89
2022-09-17T05:15:31.515Z,10.89
2022-09-17T05:16:31.567Z,10.94
2022-09-17T05:17:31.141Z,10.97
2022-09-17T05:18:31.128Z,10.96
2022-09-17T05:19:31.103Z,11.02
2022-09-17T05:20:31.787Z,10.94
2022-09-17T05:21:31.082Z,10.93
2022-09-17T05:22:31.087Z,10.99
2022-09-17T05:23:31.079Z,11.02
2022-09-17T05:24:31.173Z,11.05
2022-09-17T05:25:31.661Z,10.93
2022-09-17T05:26:31.046Z,11.02
2022-09-17T05:27:31.032Z,11.05
2022-09-17T05:28:31.014Z,10.94
2022-09-17T05:29:31.007Z,10.97
2022-09-17T05:30:31.144Z,10.94
2022-09-17T05:31:31.134Z,11.00
2022-09-17T05:32:30.981Z,10.94
2022-09-17T05:33:31.166Z,11.07
2022-09-17T05:34:30.953Z,10.94
2022-09-17T05:35:31.512Z,10.99
2022-09-17T05:36:30.993Z,11.10
2022-09-17T05:37:31.016Z,11.11
2022-09-17T05:38:30.929Z,11.00
2022-09-17T05:39:30.920Z,11.14
2022-09-17T05:40:31.578Z,11.08
2022-09-17T05:41:30.889Z,11.18
2022-09-17T05:42:30.878Z,11.10
2022-09-17T05:43:30.883Z,11.12
2022-09-17T05:44:30.876Z,11.12
2022-09-17T05:45:31.007Z,11.22
2022-09-17T05:46:30.882Z,11.14
2022-09-17T05:47:30.935Z,11.22
2022-09-17T05:48:30.825Z,11.25
2022-09-17T05:49:30.816Z,11.29
2022-09-17T05:50:31.050Z,11.19
2022-09-17T05:51:30.800Z,11.26
2022-09-17T05:52:30.810Z,11.25
2022-09-17T05:53:30.787Z,11.15
2022-09-17T05:54:30.768Z,11.18
2022-09-17T05:55:30.926Z,11.22
2022-09-17T05:56:30.872Z,11.25
2022-09-17T05:57:30.748Z,11.19
2022-09-17T05:58:30.878Z,11.25
2022-09-17T05:59:30.862Z,11.15
2022-09-17T06:00:30.894Z,11.14
2022-09-17T06:01:30.757Z,11.18
2022-09-17T06:02:30.855Z,11.25
2022-09-17T06:03:30.782Z,11.33
2022-09-17T06:04:34.700Z,11.19
2022-09-17T06:05:30.817Z,11.29
2022-09-17T06:06:30.651Z,11.19
2022-09-17T06:07:30.671Z,11.25
2022-09-17T06:08:30.637Z,11.18
2022-09-17T06:09:30.637Z,11.17
2022-09-17T06:10:30.794Z,11.29
2022-09-17T06:11:30.610Z,11.19
2022-09-17T06:12:30.732Z,11.26
2022-09-17T06:13:30.622Z,11.26
2022-09-17T06:14:30.580Z,11.25
2022-09-17T06:15:30.716Z,11.27
2022-09-17T06:16:30.644Z,11.29
2022-09-17T06:17:30.569Z,11.23
2022-09-17T06:18:30.652Z,11.23
2022-09-17T06:19:30.718Z,11.37
2022-09-17T06:20:30.705Z,11.37
2022-09-17T06:21:30.582Z,11.33
2022-09-17T06:22:30.525Z,11.40
2022-09-17T06:23:30.514Z,11.44
2022-09-17T06:24:30.595Z,11.35
2022-09-17T06:25:30.642Z,11.37
2022-09-17T06:26:30.478Z,11.41
2022-09-17T06:27:30.458Z,11.45
2022-09-17T06:28:30.563Z,11.50
2022-09-17T06:29:30.436Z,11.41
2022-09-17T06:30:30.625Z,11.45
2022-09-17T06:31:30.647Z,11.48
2022-09-17T06:32:30.412Z,11.48
2022-09-17T06:33:30.419Z,11.45
2022-09-17T06:34:30.472Z,11.62
2022-09-17T06:35:30.573Z,11.55
2022-09-17T06:36:30.385Z,11.70
2022-09-17T06:37:30.373Z,11.63
2022-09-17T06:38:30.461Z,11.77
2022-09-17T06:39:30.372Z,11.78
2022-09-17T06:40:30.564Z,11.80
2022-09-17T06:41:30.357Z,11.83
2022-09-17T06:42:30.343Z,11.78
2022-09-17T06:43:30.446Z,11.83
2022-09-17T06:44:30.432Z,11.90
2022-09-17T06:45:30.482Z,12.00
2022-09-17T06:46:30.333Z,11.95
2022-09-17T06:47:30.288Z,12.10
2022-09-17T06:48:30.367Z,12.10
2022-09-17T06:49:30.271Z,12.27
2022-09-17T06:50:30.440Z,12.32
2022-09-17T06:51:30.277Z,12.39
2022-09-17T06:52:30.249Z,12.46
2022-09-17T06:53:30.471Z,12.42
2022-09-17T06:54:30.224Z,12.60
2022-09-17T06:55:30.389Z,12.61
2022-09-17T06:56:30.435Z,12.61
2022-09-17T06:57:30.200Z,12.62
2022-09-17T06:58:30.196Z,12.61
2022-09-17T06:59:30.180Z,12.64
2022-09-17T07:00:30.444Z,12.72
2022-09-17T07:01:30.273Z,12.67
2022-09-17T07:02:30.226Z,12.62
2022-09-17T07:03:30.149Z,12.58
2022-09-17T07:04:30.152Z,12.62
2022-09-17T07:05:30.388Z,12.53
2022-09-17T07:06:30.132Z,12.45
2022-09-17T07:07:30.108Z,12.32
2022-09-17T07:08:30.137Z,12.24
2022-09-17T07:09:30.101Z,12.32
2022-09-17T07:10:30.258Z,12.29
2022-09-17T07:11:30.092Z,12.55
2022-09-17T07:12:30.086Z,12.78
2022-09-17T07:13:30.230Z,12.80
2022-09-17T07:14:30.198Z,12.83
2022-09-17T07:15:30.472Z,12.86
2022-09-17T07:16:30.251Z,12.93
2022-09-17T07:17:30.354Z,13.05
2022-09-17T07:19:30.571Z,13.04
2022-09-17T07:20:30.650Z,13.01
2022-09-17T07:21:30.457Z,12.87
2022-09-17T07:22:30.138Z,12.95
2022-09-17T07:23:29.974Z,13.00
2022-09-17T07:24:32.825Z,12.82
2022-09-17T07:25:30.583Z,12.91
2022-09-17T07:26:29.965Z,12.78
2022-09-17T07:27:30.096Z,12.75
2022-09-17T07:28:29.956Z,12.85
2022-09-17T07:29:29.925Z,13.03
2022-09-17T07:30:30.106Z,13.08
2022-09-17T07:31:29.956Z,13.41
2022-09-17T07:32:30.652Z,13.75
2022-09-17T07:33:29.911Z,13.87
2022-09-17T07:34:29.888Z,14.40
2022-09-17T07:35:30.154Z,14.69
2022-09-17T07:36:29.901Z,15.14
2022-09-17T07:37:29.938Z,15.65
2022-09-17T07:38:29.933Z,15.61
2022-09-17T07:39:29.872Z,15.86
2022-09-17T07:40:30.096Z,15.84
2022-09-17T07:41:29.880Z,15.47
2022-09-17T07:42:29.888Z,15.19
2022-09-17T07:43:29.853Z,14.78
2022-09-17T07:44:29.846Z,14.72
2022-09-17T07:45:30.831Z,14.69
2022-09-17T07:46:29.859Z,14.28
2022-09-17T07:47:29.833Z,14.44
2022-09-17T07:48:29.935Z,14.45
2022-09-17T07:49:29.840Z,14.68
2022-09-17T07:50:29.989Z,15.15
2022-09-17T07:51:29.808Z,15.49
2022-09-17T07:52:29.806Z,15.31
2022-09-17T07:53:29.843Z,15.44
2022-09-17T07:54:29.820Z,16.12
2022-09-17T07:55:29.884Z,15.90
2022-09-17T07:56:30.524Z,16.02
2022-09-17T07:57:29.879Z,16.83
2022-09-17T07:58:29.815Z,16.74
2022-09-17T07:59:29.848Z,15.79
2022-09-17T08:00:29.878Z,15.33
2022-09-17T08:01:29.890Z,15.61
2022-09-17T08:02:29.831Z,16.10
2022-09-17T08:03:29.829Z,16.57
2022-09-17T08:04:29.934Z,17.01
2022-09-17T08:05:29.784Z,17.01
2022-09-17T08:06:29.961Z,16.71
2022-09-17T08:07:29.740Z,16.68
2022-09-17T08:08:29.756Z,16.26
2022-09-17T08:09:29.845Z,16.20
2022-09-17T08:10:29.882Z,16.12
2022-09-17T08:11:54.469Z,16.23
2022-09-17T08:12:29.719Z,15.77
2022-09-17T08:13:29.712Z,15.91
2022-09-17T08:14:30.190Z,16.02
2022-09-17T08:15:29.851Z,16.91
2022-09-17T08:16:30.377Z,17.30
2022-09-17T08:17:29.788Z,17.63
2022-09-17T08:18:29.707Z,17.46
2022-09-17T08:19:29.668Z,17.42
2022-09-17T08:20:29.993Z,17.80
2022-09-17T08:21:29.760Z,18.33
2022-09-17T08:22:29.652Z,18.53
2022-09-17T08:23:29.814Z,18.65
2022-09-17T08:24:29.722Z,18.03
2022-09-17T08:25:29.796Z,17.24
2022-09-17T08:26:29.635Z,17.06
2022-09-17T08:27:29.648Z,16.97
2022-09-17T08:28:29.642Z,17.09
2022-09-17T08:29:33.244Z,17.04
2022-09-17T08:30:29.795Z,17.82
2022-09-17T08:31:29.894Z,18.16
2022-09-17T08:32:29.962Z,17.98
2022-09-17T08:33:29.643Z,17.85
2022-09-17T08:34:29.615Z,17.67
2022-09-17T08:35:29.818Z,16.87
2022-09-17T08:36:29.748Z,16.35
2022-09-17T08:37:29.687Z,15.86
2022-09-17T08:38:31.718Z,15.65
2022-09-17T08:39:29.670Z,15.35
2022-09-17T08:40:29.794Z,14.73
2022-09-17T08:41:29.662Z,14.66
2022-09-17T08:42:29.578Z,14.68
2022-09-17T08:43:29.622Z,14.47
2022-09-17T08:44:29.573Z,14.33
2022-09-17T08:45:29.631Z,14.32
2022-09-17T08:46:29.691Z,14.28
2022-09-17T08:47:29.577Z,14.48
2022-09-17T08:48:29.546Z,14.23
2022-09-17T08:49:29.637Z,14.30
2022-09-17T08:50:29.686Z,14.26
2022-09-17T08:51:29.524Z,14.29
2022-09-17T08:52:29.675Z,14.10
2022-09-17T08:53:29.527Z,13.93
2022-09-17T08:54:29.520Z,13.95
2022-09-17T08:55:29.702Z,13.78
2022-09-17T08:56:29.514Z,13.62
2022-09-17T08:57:29.526Z,13.60
2022-09-17T08:58:29.513Z,13.49
2022-09-17T08:59:29.691Z,13.42
2022-09-17T09:00:29.712Z,13.39
2022-09-17T09:01:29.563Z,13.35
2022-09-17T09:02:29.592Z,13.18
2022-09-17T09:03:29.472Z,13.18
2022-09-17T09:04:29.454Z,13.25
2022-09-17T09:05:29.615Z,13.23
2022-09-17T09:06:29.640Z,13.31
2022-09-17T09:07:29.430Z,13.22
2022-09-17T09:08:29.741Z,13.28
2022-09-17T09:09:29.413Z,13.23
2022-09-17T09:10:29.561Z,13.23
2022-09-17T09:11:29.408Z,13.33
2022-09-17T09:12:29.402Z,13.30
2022-09-17T09:13:29.385Z,13.37
2022-09-17T09:14:29.378Z,13.37
2022-09-17T09:15:29.520Z,13.30
2022-09-17T09:16:29.442Z,13.35
2022-09-17T09:17:29.483Z,13.35
2022-09-17T09:18:29.572Z,13.46
2022-09-17T09:19:29.660Z,13.49
2022-09-17T09:20:29.495Z,13.49
2022-09-17T09:21:29.337Z,13.60
2022-09-17T09:22:29.364Z,13.70
2022-09-17T09:23:29.349Z,13.65
2022-09-17T09:24:29.429Z,13.67
2022-09-17T09:25:29.479Z,13.65
2022-09-17T09:26:29.299Z,13.60
2022-09-17T09:27:29.331Z,13.59
2022-09-17T09:28:29.390Z,13.75
2022-09-17T09:29:29.338Z,13.83
2022-09-17T09:30:29.439Z,14.14
2022-09-17T09:31:29.303Z,14.54
2022-09-17T09:32:29.946Z,14.92
2022-09-17T09:33:29.278Z,15.21
2022-09-17T09:34:29.279Z,15.42
2022-09-17T09:35:29.360Z,15.59
2022-09-17T09:36:29.266Z,15.80
2022-09-17T09:37:29.425Z,15.97
2022-09-17T09:38:29.197Z,15.95
2022-09-17T09:39:32.242Z,16.13
2022-09-17T09:40:29.538Z,16.23
2022-09-17T09:41:29.194Z,16.42
2022-09-17T09:42:29.218Z,16.47
2022-09-17T09:43:46.377Z,16.50
2022-09-17T09:44:29.187Z,16.66
2022-09-17T09:45:29.237Z,16.79
2022-09-17T09:46:29.228Z,16.87
2022-09-17T09:47:29.509Z,16.69
2022-09-17T09:48:29.176Z,16.56
2022-09-17T09:49:29.308Z,16.57
2022-09-17T09:50:43.190Z,16.42
2022-09-17T09:51:29.122Z,16.23
2022-09-17T09:52:29.117Z,16.13
2022-09-17T09:53:29.108Z,15.88
2022-09-17T09:54:29.096Z,15.58
2022-09-17T09:55:29.143Z,15.52
2022-09-17T09:56:29.219Z,15.29
2022-09-17T09:57:29.080Z,15.03
2022-09-17T09:58:29.093Z,14.60
2022-09-17T09:59:29.083Z,14.44
2022-09-17T10:00:29.206Z,14.30
2022-09-17T10:01:29.178Z,14.14
2022-09-17T10:02:29.200Z,13.86
2022-09-17T10:03:29.048Z,13.83
2022-09-17T10:04:29.031Z,13.72
2022-09-17T10:05:29.193Z,13.87
2022-09-17T10:06:29.027Z,13.68
2022-09-17T10:07:29.041Z,13.65
2022-09-17T10:08:29.091Z,13.60
2022-09-17T10:09:29.350Z,13.53
2022-09-17T10:10:29.181Z,13.59
2022-09-17T10:11:29.196Z,13.44
2022-09-17T10:12:29.274Z,13.56
2022-09-17T10:13:29.015Z,13.54
2022-09-17T10:14:29.276Z,13.56
2022-09-17T10:15:29.162Z,13.46
2022-09-17T10:16:29.049Z,13.57
2022-09-17T10:17:29.211Z,13.89
2022-09-17T10:18:29.164Z,14.30
2022-09-17T10:19:29.086Z,14.66
2022-09-17T10:20:29.057Z,14.91
2022-09-17T10:21:28.967Z,15.09
2022-09-17T10:22:28.928Z,15.31
2022-09-17T10:23:28.898Z,15.65
2022-09-17T10:24:28.918Z,15.91
2022-09-17T10:25:29.002Z,15.88
2022-09-17T10:26:28.938Z,16.09
2022-09-17T10:27:28.884Z,16.26
2022-09-17T10:28:29.017Z,16.68
2022-09-17T10:29:28.871Z,16.51
2022-09-17T10:30:29.057Z,16.47
2022-09-17T10:31:28.929Z,16.64
2022-09-17T10:32:29.445Z,16.61
2022-09-17T10:33:28.844Z,16.83
2022-09-17T10:34:28.837Z,16.71
2022-09-17T10:35:29.005Z,16.61
2022-09-17T10:36:28.850Z,16.49
2022-09-17T10:37:28.855Z,16.53
2022-09-17T10:38:28.831Z,16.42
2022-09-17T10:39:28.930Z,16.68
2022-09-17T10:40:29.171Z,16.76
2022-09-17T10:41:28.877Z,16.78
2022-09-17T10:42:28.811Z,16.86
2022-09-17T10:43:28.775Z,17.23
2022-09-17T10:44:28.914Z,17.41
2022-09-17T10:45:29.136Z,17.39
2022-09-17T10:46:29.020Z,17.09
2022-09-17T10:47:28.851Z,17.26
2022-09-17T10:48:28.749Z,17.41
2022-09-17T10:49:28.746Z,17.30
2022-09-17T10:50:28.875Z,17.26
2022-09-17T10:51:28.730Z,17.19
2022-09-17T10:52:28.749Z,17.01
2022-09-17T10:53:28.723Z,16.93
2022-09-17T10:54:28.709Z,16.75
2022-09-17T10:55:28.850Z,16.65
2022-09-17T10:56:28.823Z,16.16
2022-09-17T10:57:28.705Z,15.90
2022-09-17T10:58:28.783Z,15.94
2022-09-17T10:59:28.734Z,15.84
2022-09-17T11:00:28.986Z,15.70
2022-09-17T11:01:28.734Z,15.65
2022-09-17T11:02:28.803Z,15.59
2022-09-17T11:03:28.656Z,15.57
2022-09-17T11:04:28.669Z,15.62
2022-09-17T11:05:28.814Z,15.72
2022-09-17T11:06:28.649Z,15.92
2022-09-17T11:07:28.659Z,16.02
2022-09-17T11:08:28.649Z,16.05
2022-09-17T11:09:28.618Z,16.10
2022-09-17T11:10:28.812Z,16.13
2022-09-17T11:11:28.617Z,15.91
2022-09-17T11:12:28.616Z,16.15
2022-09-17T11:13:28.622Z,16.47
2022-09-17T11:14:28.588Z,16.64
2022-09-17T11:15:28.656Z,16.74
2022-09-17T11:16:28.778Z,16.60
2022-09-17T11:17:28.836Z,16.29
2022-09-17T11:18:28.595Z,16.33
2022-09-17T11:19:28.568Z,16.42
2022-09-17T11:20:28.744Z,16.72
2022-09-17T11:21:28.589Z,16.94
2022-09-17T11:22:28.621Z,17.09
2022-09-17T11:23:28.534Z,17.39
2022-09-17T11:24:29.143Z,17.26
2022-09-17T11:25:28.876Z,17.16
2022-09-17T11:26:28.580Z,16.93
2022-09-17T11:27:28.528Z,16.86
2022-09-17T11:28:28.510Z,16.93
2022-09-17T11:29:28.517Z,16.94
2022-09-17T11:30:28.570Z,17.01
2022-09-17T11:31:29.005Z,17.33
2022-09-17T11:32:28.632Z,17.46
2022-09-17T11:33:28.933Z,17.57
2022-09-17T11:34:28.763Z,17.31
2022-09-17T11:35:29.069Z,17.45
2022-09-17T11:36:28.660Z,17.71
2022-09-17T11:37:28.826Z,17.60
2022-09-17T11:38:28.481Z,17.74
2022-09-17T11:39:28.651Z,17.90
2022-09-17T11:40:28.968Z,17.86
2022-09-17T11:41:28.770Z,17.63
2022-09-17T11:42:28.593Z,17.45
2022-09-17T11:43:28.642Z,17.26
2022-09-17T11:44:28.834Z,17.27
2022-09-17T11:45:28.665Z,17.41
2022-09-17T11:46:28.653Z,17.41
2022-09-17T11:47:28.574Z,17.24
2022-09-17T11:48:28.840Z,16.87
2022-09-17T11:49:28.454Z,16.69
2022-09-17T11:50:28.546Z,16.57
2022-09-17T11:51:28.598Z,16.42
2022-09-17T11:52:28.414Z,16.28
2022-09-17T11:53:28.408Z,16.00
2022-09-17T11:54:28.394Z,15.67
2022-09-17T11:55:28.527Z,15.67
2022-09-17T11:56:28.508Z,15.73
2022-09-17T11:57:28.353Z,15.86
2022-09-17T11:58:28.365Z,15.97
2022-09-17T11:59:28.538Z,16.13
2022-09-17T12:00:28.476Z,16.20
2022-09-17T12:01:28.321Z,16.26
2022-09-17T12:02:28.418Z,16.42
2022-09-17T12:03:28.367Z,16.54
2022-09-17T12:04:28.417Z,16.49
2022-09-17T12:05:28.655Z,16.16
2022-09-17T12:06:28.326Z,16.08
2022-09-17T12:07:28.314Z,16.04
2022-09-17T12:08:28.329Z,16.10
2022-09-17T12:09:28.266Z,15.98
2022-09-17T12:10:28.469Z,15.88
2022-09-17T12:11:28.274Z,15.72
2022-09-17T12:12:48.243Z,15.59
2022-09-17T12:13:28.306Z,15.68
2022-09-17T12:14:28.264Z,15.68
2022-09-17T12:15:28.396Z,15.80
2022-09-17T12:16:28.295Z,16.02
2022-09-17T12:17:28.464Z,16.20
2022-09-17T12:18:32.351Z,16.39
2022-09-17T12:19:28.230Z,16.39
2022-09-17T12:20:28.505Z,16.54
2022-09-17T12:21:28.219Z,16.69
2022-09-17T12:22:28.222Z,16.84
2022-09-17T12:23:28.200Z,16.84
2022-09-17T12:24:28.202Z,16.91
2022-09-17T12:25:28.921Z,16.90
2022-09-17T12:26:28.154Z,16.97
2022-09-17T12:27:28.200Z,16.87
2022-09-17T12:28:28.205Z,16.94
2022-09-17T12:29:28.161Z,16.89
2022-09-17T12:30:28.194Z,16.90
2022-09-17T12:31:28.187Z,16.84
2022-09-17T12:32:28.117Z,16.90
2022-09-17T12:33:28.170Z,16.81
2022-09-17T12:34:28.163Z,16.81
2022-09-17T12:35:52.665Z,16.75
2022-09-17T12:36:28.221Z,16.86
2022-09-17T12:37:28.116Z,16.58
2022-09-17T12:38:28.202Z,16.60
2022-09-17T12:39:28.075Z,16.26
2022-09-17T12:40:28.328Z,16.09
2022-09-17T12:41:28.155Z,15.94
2022-09-17T12:42:28.070Z,15.86
2022-09-17T12:43:28.103Z,15.98
2022-09-17T12:44:28.457Z,16.12
2022-09-17T12:45:28.191Z,16.21
2022-09-17T12:46:28.145Z,16.26
2022-09-17T12:47:28.097Z,16.36
2022-09-17T12:48:28.076Z,16.38
2022-09-17T12:49:28.036Z,16.60
2022-09-17T12:50:28.254Z,16.43
2022-09-17T12:51:28.024Z,16.33
2022-09-17T12:52:28.448Z,16.08
2022-09-17T12:53:28.026Z,16.16